Historyczne dane pomiarowe

Dodano dane terminowe – wersja testowa.

Dane z okresu 1951-2019

Wersja bazy: 1.34 [2019-03-16, lista zmian], aktualizacja planowana na 2019-04-15

Dane meteo z obszaru Polski uzyskane na podstawie danych udostępnionych przez Instytut Meteorologii i Gospodarki Wodnej – Państwowy Instytut Badawczy.

 

Wybierz Datę:    

       

TemperaturaWilgotnośćWiatrCiśnienieOpadyŚniegCzas trwania zjawisk
 Stacja t tx tn tng RH VA  wxwx mslp ppp RRR   cm mm wxwxwxwxwxwxwx
1983-08-14 11.6 15.0 9.3- 81.8- 2.3 5.0---- 0.4------------
1983-08-13 13.1 17.9 11.4- 85.3- 7.7 3.3---- 7.0------------
1983-08-12 17.4 23.3 12.2- 78.5- 4.0 2.3---- 6.6------------
1983-08-11 17.0 20.0 13.2- 89.8- 6.7 4.3---- 4.0------------
1983-08-10 15.8 21.6 8.0- 89.8- 5.7 4.3---- 7.9------------
1983-08-09 16.6 22.6 11.8- 87.0- 5.7 3.7---- 0.3------------
1983-08-08 15.9 20.6 13.2- 91.3- 7.3 4.3---- 6.4------------
1983-08-07 13.8 17.3 11.8- 94.3- 8.0 3.0---- 12.1------------
1983-08-06 13.6 18.6 10.2- 81.0- 7.7 2.3---- 0.7------------
1983-08-05 10.6 13.0 8.8- 91.3- 8.0 2.0---- 0.0------------
1983-08-04 11.2 20.1 9.5- 93.5- 8.0 3.3---- 11.1------------
1983-08-03 19.1 23.6 15.4- 87.3- 4.7 2.3---- 11.3------------
1983-08-02 19.6 27.0 14.2- 76.5- 1.7 2.3---- 1.3------------
1983-08-01 16.8 24.1 7.0- 69.3- 0.0 3.0---- 0.0------------
1983-07-31 15.4 20.7 8.3- 74.0- 0.3 2.0---- 0.0------------
1983-07-30 14.8 19.7 8.8- 85.3- 6.7 2.3---- 1.9------------
1983-07-29 17.6 22.0 10.1- 74.8- 4.3 3.0---- 0.3------------
1983-07-28 21.0 25.5 15.0- 70.5- 5.0 1.7---- 0.0------------
1983-07-27 20.1 27.0 12.5- 74.3- 1.0 1.0---- 0.0------------
1983-07-26 18.4 23.6 13.6- 63.5- 2.0 5.3---- 0.0------------
1983-07-25 14.5 19.0 10.9- 74.3- 4.0 4.0---- 0.0------------
1983-07-24 15.2 19.7 12.7- 81.8- 7.0 2.3---- 0.8------------
1983-07-23 15.0 18.7 11.6- 76.5- 7.0 3.7---- 0.0------------
1983-07-22 11.6 13.6 6.5- 73.0- 7.7 2.3---- 1.3------------
1983-07-21 10.2 14.0 6.3- 74.0- 5.7 4.7---- 1.3------------
1983-07-20 15.4 24.1 11.3- 88.8- 7.0 7.0---- 7.2------------
1983-07-19 20.2 27.0 13.5- 77.8- 4.7 1.0---- 0.0------------
1983-07-18 19.7 26.7 11.0- 74.5- 0.0 1.7---- 0.0------------
1983-07-17 18.9 24.6 11.6- 75.0- 2.3 1.7---- 0.0------------
1983-07-16 17.8 24.4 9.6- 78.0- 1.3 0.0---- 0.0------------
1983-07-15 17.4 21.7 14.2- 73.8- 0.7 4.0---- 0.0------------
1983-07-14 15.3 17.4 13.3- 94.8- 8.0 3.3---- 30.7------------
1983-07-13 13.8 18.1 10.3- 96.3- 8.0 2.0---- 82.3------------
1983-07-12 15.3 19.4 13.4- 89.3- 7.3 3.3---- 9.7------------
1983-07-11 16.8 22.0 11.0- 78.3- 6.7 3.0---- 16.9------------
1983-07-10 17.3 24.2 9.8- 78.0- 3.7 2.0---- 3.7------------
1983-07-09 17.0 24.3 6.5- 72.0- 2.7 1.7---- 0.0------------
1983-07-08 17.2 23.6 7.5- 63.5- 0.0 2.3---- 0.0------------
1983-07-07 18.3 25.1 9.0- 67.8- 0.0 1.3---- 0.0------------
1983-07-06 18.5 25.3 9.4- 72.8- 0.0 1.7---- 0.0------------
1983-07-05 17.6 24.1 7.9- 69.5- 1.7 1.3---- 0.0------------
1983-07-04 16.3 22.4 7.1- 69.5- 0.0 1.7---- 0.0------------
1983-07-03 17.1 20.4 13.0- 74.5- 2.0 3.3---- 0.0------------
1983-07-02 17.0 21.3 12.3- 81.5- 6.7 5.3---- 5.1------------
1983-07-01 17.2 23.3 9.5- 77.0- 3.3 1.7---- 0.0------------
1983-06-30 13.7 21.6 3.3- 75.8- 3.0 2.7---- 0.0------------
1983-06-29 12.8 16.6 10.3- 71.5- 4.0 3.0---- 0.0------------
1983-06-28 14.3 18.4 13.4- 94.3- 8.0 4.3---- 27.3------------
1983-06-27 16.4 21.3 12.0- 93.3- 8.0 2.3---- 1.8------------
1983-06-26 14.9 20.3 9.5- 92.5- 7.3 2.0---- 21.3------------
1983-06-25 17.9 24.6 9.6- 68.3- 0.3 3.0---- 0.5------------
1983-06-24 15.4 22.9 4.5- 67.3- 0.3 1.3---- 0.0------------
1983-06-23 12.4 20.3 2.9- 67.8- 0.3 2.0---- 0.0------------
1983-06-22 12.9 18.7 10.0- 75.0- 2.3 3.7---- 0.0------------
1983-06-21 17.5 22.1 13.5- 81.8- 2.3 1.7---- 0.5------------
1983-06-20 15.4 17.7 13.8- 96.3- 8.0 2.7---- 0.2------------
1983-06-19 13.6 17.2 10.0- 96.8- 8.0 3.0---- 24.4------------
1983-06-18 10.0 12.0 8.6- 97.0- 8.0 5.3---- 21.7------------
1983-06-17 9.4 11.3 8.7- 92.8- 8.0 5.0---- 11.4------------
1983-06-16 9.3 13.3 7.8- 97.3- 8.0 6.7---- 6.6------------
331.6 ms

 

Źródłem pochodzenia danych jest Instytut Meteorologii i Gospodarki Wodnej – Państwowy Instytut Badawczy. Dane Instytutu Meteorologii i Gospodarki Wodnej – Państwowego Instytutu Badawczego zostały przetworzone.

Dane źródłowe można odnaleźć na stronie https://dane.imgw.pl